createdAt,value
2022-12-03T00:00:13.187Z,92.67
2022-12-03T00:02:42.061Z,92.91
2022-12-03T00:05:10.598Z,93.03
2022-12-03T00:07:38.675Z,92.91
2022-12-03T00:10:07.221Z,92.97
2022-12-03T00:12:35.130Z,93.04
2022-12-03T00:15:02.496Z,93.17
2022-12-03T00:17:30.032Z,93.14
2022-12-03T00:19:57.746Z,93.14
2022-12-03T00:22:29.318Z,93.09
2022-12-03T00:24:56.961Z,92.98
2022-12-03T00:27:24.586Z,92.93
2022-12-03T00:29:51.921Z,93.04
2022-12-03T00:32:19.339Z,93.06
2022-12-03T00:34:46.765Z,93.06
2022-12-03T00:37:14.133Z,93.09
2022-12-03T00:39:41.486Z,93.17
2022-12-03T00:42:08.846Z,92.97
2022-12-03T00:44:36.084Z,92.82
2022-12-03T00:47:03.643Z,92.71
2022-12-03T00:49:31.372Z,92.50
2022-12-03T00:51:58.661Z,92.38
2022-12-03T00:54:31.656Z,92.46
2022-12-03T00:56:59.612Z,92.37
2022-12-03T00:59:26.944Z,92.35
2022-12-03T01:01:54.386Z,92.57
2022-12-03T01:04:21.733Z,92.80
2022-12-03T01:06:49.524Z,92.96
2022-12-03T01:09:17.920Z,92.78
2022-12-03T01:11:46.310Z,92.78
2022-12-03T01:14:16.975Z,92.99
2022-12-03T01:16:44.754Z,93.21
2022-12-03T01:19:16.680Z,93.32
2022-12-03T01:21:46.488Z,93.39
2022-12-03T01:24:14.215Z,93.51
2022-12-03T01:26:41.977Z,93.46
2022-12-03T01:29:09.341Z,93.45
2022-12-03T01:31:55.335Z,93.39
2022-12-03T01:34:23.487Z,93.16
2022-12-03T01:36:52.622Z,93.15
2022-12-03T01:39:21.467Z,93.09
2022-12-03T01:41:51.599Z,93.21
2022-12-03T01:44:24.789Z,93.29
2022-12-03T01:46:53.687Z,93.41
2022-12-03T01:49:27.327Z,93.42
2022-12-03T01:51:55.838Z,93.33
2022-12-03T01:54:27.716Z,93.20
2022-12-03T01:56:55.751Z,93.34
2022-12-03T01:59:32.403Z,93.22
2022-12-03T02:02:11.502Z,93.27
2022-12-03T02:04:39.017Z,93.57
2022-12-03T02:07:24.640Z,93.81
2022-12-03T02:09:53.397Z,93.85
2022-12-03T02:12:27.120Z,93.84
2022-12-03T02:14:55.008Z,93.75
2022-12-03T02:17:22.968Z,93.77
2022-12-03T02:19:51.247Z,93.74
2022-12-03T02:22:19.533Z,93.76
2022-12-03T02:24:50.682Z,93.87
2022-12-03T02:27:18.558Z,93.80
2022-12-03T02:29:46.045Z,93.72
2022-12-03T02:32:13.558Z,93.76
2022-12-03T02:34:45.331Z,93.73
2022-12-03T02:37:34.742Z,93.55
2022-12-03T02:40:12.079Z,93.49
2022-12-03T02:42:39.891Z,93.34
2022-12-03T02:45:12.653Z,92.95
2022-12-03T02:47:54.305Z,92.51
2022-12-03T02:50:27.165Z,92.43
2022-12-03T02:52:56.939Z,92.08
2022-12-03T02:55:25.490Z,92.12
2022-12-03T02:57:53.252Z,92.28
2022-12-03T03:00:23.023Z,92.37
2022-12-03T03:02:50.974Z,92.16
2022-12-03T03:05:21.796Z,91.92
2022-12-03T03:07:52.587Z,91.88
2022-12-03T03:10:23.187Z,91.85
2022-12-03T03:12:52.755Z,92.11
2022-12-03T03:15:20.633Z,92.26
2022-12-03T03:17:50.503Z,92.32
2022-12-03T03:20:18.702Z,92.18
2022-12-03T03:22:46.371Z,92.48
2022-12-03T03:25:18.815Z,92.71
2022-12-03T03:27:46.223Z,92.48
2022-12-03T03:30:14.412Z,92.41
2022-12-03T03:32:42.649Z,92.44
2022-12-03T03:35:11.629Z,92.27
2022-12-03T03:37:39.466Z,92.41
2022-12-03T03:40:07.883Z,92.32
2022-12-03T03:42:35.840Z,92.53
2022-12-03T03:45:04.290Z,92.78
2022-12-03T03:47:32.252Z,92.57
2022-12-03T03:50:01.061Z,93.29
2022-12-03T03:52:28.572Z,93.59
2022-12-03T03:54:56.305Z,93.52
2022-12-03T03:57:24.043Z,93.54
2022-12-03T03:59:51.277Z,93.52
2022-12-03T04:02:24.640Z,93.72
2022-12-03T04:04:52.989Z,93.31
2022-12-03T04:07:20.757Z,93.10
2022-12-03T04:09:48.082Z,92.77
2022-12-03T04:12:34.419Z,93.00
2022-12-03T04:15:01.820Z,93.20
2022-12-03T04:17:29.074Z,93.38
2022-12-03T04:19:56.475Z,93.41
2022-12-03T04:22:42.284Z,93.65
2022-12-03T04:25:28.774Z,93.85
2022-12-03T04:28:14.901Z,93.85
2022-12-03T04:30:42.424Z,93.84
2022-12-03T04:33:28.740Z,93.79
2022-12-03T04:35:56.090Z,93.74
2022-12-03T04:38:23.529Z,93.79
2022-12-03T04:41:06.202Z,93.85
2022-12-03T04:43:35.059Z,93.52
2022-12-03T04:46:02.827Z,93.17
2022-12-03T04:48:30.620Z,92.92
2022-12-03T04:50:59.450Z,92.95
2022-12-03T04:53:27.493Z,93.22
2022-12-03T04:55:54.772Z,93.42
2022-12-03T04:58:22.276Z,93.62
2022-12-03T05:00:49.651Z,93.57
2022-12-03T05:03:17.378Z,93.55
2022-12-03T05:05:44.791Z,93.13
2022-12-03T05:08:12.242Z,92.86
2022-12-03T05:10:39.792Z,92.82
2022-12-03T05:13:07.162Z,92.72
2022-12-03T05:15:34.500Z,92.54
2022-12-03T05:18:01.766Z,92.48
2022-12-03T05:20:41.693Z,93.00
2022-12-03T05:23:13.008Z,92.90
2022-12-03T05:25:41.134Z,92.80
2022-12-03T05:28:08.446Z,92.48
2022-12-03T05:30:37.538Z,92.34
2022-12-03T05:33:05.006Z,92.32
2022-12-03T05:35:32.319Z,92.48
2022-12-03T05:37:59.741Z,92.43
2022-12-03T05:40:27.106Z,92.55
2022-12-03T05:42:54.514Z,92.51
2022-12-03T05:45:26.781Z,92.86
2022-12-03T05:47:55.515Z,93.32
2022-12-03T05:50:26.272Z,93.74
2022-12-03T05:52:56.646Z,93.65
2022-12-03T05:55:24.209Z,93.31
2022-12-03T05:57:51.557Z,93.03
2022-12-03T06:00:22.708Z,93.18
2022-12-03T06:02:50.384Z,93.10
2022-12-03T06:05:22.073Z,92.87
2022-12-03T06:07:51.220Z,92.77
2022-12-03T06:10:22.013Z,92.70
2022-12-03T06:12:50.073Z,92.78
2022-12-03T06:15:17.931Z,92.81
2022-12-03T06:17:45.412Z,93.05
2022-12-03T06:20:15.218Z,93.35
2022-12-03T06:22:42.570Z,93.58
2022-12-03T06:25:10.860Z,93.74
2022-12-03T06:27:38.313Z,93.85
2022-12-03T06:30:06.819Z,93.98
2022-12-03T06:32:34.362Z,94.17
2022-12-03T06:35:01.853Z,94.46
2022-12-03T06:37:29.219Z,94.78
2022-12-03T06:39:56.840Z,95.06
2022-12-03T06:42:24.269Z,95.15
2022-12-03T06:44:51.810Z,95.33
2022-12-03T06:47:19.274Z,95.52
2022-12-03T06:49:46.626Z,95.77
2022-12-03T06:52:13.951Z,95.28
2022-12-03T06:54:41.239Z,94.81
2022-12-03T06:57:08.605Z,94.70
2022-12-03T06:59:38.350Z,94.22
2022-12-03T07:02:05.807Z,94.02
2022-12-03T07:04:33.237Z,93.68
2022-12-03T07:07:00.596Z,93.44
2022-12-03T07:09:28.233Z,92.55
2022-12-03T07:11:58.402Z,93.01
2022-12-03T07:14:26.208Z,93.50
2022-12-03T07:16:53.494Z,92.91
2022-12-03T07:19:20.850Z,92.60
2022-12-03T07:21:48.308Z,91.53
2022-12-03T07:24:15.735Z,91.31
2022-12-03T07:26:46.289Z,92.86
2022-12-03T07:29:13.620Z,93.39
2022-12-03T07:31:41.438Z,94.23
2022-12-03T07:34:09.196Z,94.87
2022-12-03T07:36:36.559Z,94.73
2022-12-03T07:39:05.216Z,94.42
2022-12-03T07:41:32.733Z,93.58
2022-12-03T07:44:00.197Z,91.88
2022-12-03T07:46:27.622Z,88.75
2022-12-03T07:48:55.272Z,89.57
2022-12-03T07:51:26.205Z,83.97
2022-12-03T07:53:57.966Z,82.24
2022-12-03T07:56:26.358Z,82.55
2022-12-03T07:58:54.740Z,82.23
2022-12-03T08:01:22.333Z,80.94
2022-12-03T08:03:53.466Z,79.34
2022-12-03T08:06:22.303Z,78.95
2022-12-03T08:08:50.570Z,77.36
2022-12-03T08:11:17.930Z,76.92
2022-12-03T08:13:46.156Z,76.77
2022-12-03T08:16:21.878Z,76.47
2022-12-03T08:18:50.887Z,76.08
2022-12-03T08:21:20.716Z,73.22
2022-12-03T08:23:48.515Z,72.10
2022-12-03T08:26:28.180Z,71.36
2022-12-03T08:29:02.400Z,70.23
2022-12-03T08:31:33.665Z,66.05
2022-12-03T08:34:43.180Z,65.88
2022-12-03T08:37:18.594Z,59.85
2022-12-03T08:39:48.519Z,61.24
2022-12-03T08:42:41.778Z,62.11
2022-12-03T08:45:39.959Z,62.38
2022-12-03T08:48:19.345Z,59.04
2022-12-03T08:50:46.990Z,55.90
2022-12-03T08:53:15.314Z,54.86
2022-12-03T08:55:48.594Z,54.23
2022-12-03T08:58:23.488Z,51.37
2022-12-03T09:00:57.913Z,50.12
2022-12-03T09:03:25.670Z,51.91
2022-12-03T09:05:53.230Z,51.81
2022-12-03T09:08:22.319Z,52.34
2022-12-03T09:10:49.746Z,49.91
2022-12-03T09:13:18.423Z,49.36
2022-12-03T09:15:45.849Z,48.32
2022-12-03T09:18:14.527Z,47.73
2022-12-03T09:20:41.935Z,44.64
2022-12-03T09:23:09.297Z,43.45
2022-12-03T09:25:36.622Z,42.87
2022-12-03T09:28:04.016Z,45.20
2022-12-03T09:30:31.355Z,43.38
2022-12-03T09:33:01.252Z,42.05
2022-12-03T09:35:28.681Z,43.71
2022-12-03T09:37:56.412Z,46.56
2022-12-03T09:40:23.993Z,47.17
2022-12-03T09:42:51.992Z,44.27
2022-12-03T09:45:19.974Z,47.29
2022-12-03T09:47:50.140Z,48.66
2022-12-03T09:50:23.608Z,50.09
2022-12-03T09:52:54.907Z,51.99
2022-12-03T09:55:25.634Z,53.83
2022-12-03T09:57:54.690Z,54.92
2022-12-03T10:00:28.516Z,56.67
2022-12-03T10:03:02.905Z,58.97
2022-12-03T10:05:39.227Z,58.10
2022-12-03T10:08:13.367Z,60.03
2022-12-03T10:10:42.163Z,61.77
2022-12-03T10:13:21.034Z,62.82
2022-12-03T10:15:55.424Z,63.64
2022-12-03T10:18:29.859Z,63.93
2022-12-03T10:20:58.076Z,62.42
2022-12-03T10:23:30.147Z,64.75
2022-12-03T10:25:58.876Z,63.19
2022-12-03T10:28:30.434Z,63.76
2022-12-03T10:30:59.196Z,66.79
2022-12-03T10:33:35.361Z,66.42
2022-12-03T10:36:26.325Z,67.55
2022-12-03T10:39:18.633Z,66.39
2022-12-03T10:41:46.356Z,66.70
2022-12-03T10:44:19.077Z,66.14
2022-12-03T10:47:05.990Z,62.12
2022-12-03T10:49:33.665Z,60.88
2022-12-03T10:52:02.147Z,61.68
2022-12-03T10:54:31.678Z,60.08
2022-12-03T10:56:59.025Z,60.07
2022-12-03T10:59:31.838Z,59.79
2022-12-03T11:01:59.658Z,59.44
2022-12-03T11:04:33.905Z,58.81
2022-12-03T11:07:14.348Z,55.51
2022-12-03T11:09:45.421Z,56.17
2022-12-03T11:12:26.672Z,55.88
2022-12-03T11:14:55.487Z,55.27
2022-12-03T11:17:43.858Z,56.12
2022-12-03T11:20:22.826Z,56.49
2022-12-03T11:22:58.318Z,57.21
2022-12-03T11:25:26.135Z,57.70
2022-12-03T11:28:15.023Z,57.30
2022-12-03T11:30:52.417Z,58.19
2022-12-03T11:33:34.502Z,58.87
2022-12-03T11:36:04.937Z,58.09
2022-12-03T11:38:38.422Z,57.88
2022-12-03T11:41:30.352Z,59.16
2022-12-03T11:43:58.952Z,57.54
2022-12-03T11:46:38.408Z,58.51
2022-12-03T11:49:31.823Z,58.51
2022-12-03T11:52:03.107Z,58.45
2022-12-03T11:54:35.109Z,59.65
2022-12-03T11:57:04.105Z,59.13
2022-12-03T11:59:33.557Z,60.25
2022-12-03T12:02:00.875Z,60.47
2022-12-03T12:04:28.238Z,60.70
2022-12-03T12:06:55.718Z,63.00
2022-12-03T12:09:55.161Z,64.07
2022-12-03T12:12:39.327Z,65.20
2022-12-03T12:15:39.320Z,64.95
2022-12-03T12:18:34.077Z,65.75
2022-12-03T12:21:43.117Z,65.73
2022-12-03T12:24:41.109Z,65.76
2022-12-03T12:27:13.692Z,65.74
2022-12-03T12:29:42.536Z,65.96
2022-12-03T12:32:10.761Z,66.50
2022-12-03T12:34:40.320Z,67.75
2022-12-03T12:37:37.109Z,68.47
2022-12-03T12:40:13.514Z,68.69
2022-12-03T12:43:14.405Z,68.20
2022-12-03T12:45:45.412Z,68.53
2022-12-03T12:48:16.112Z,68.19
2022-12-03T12:50:47.426Z,66.87
2022-12-03T12:53:34.117Z,66.92
2022-12-03T12:56:30.236Z,66.75
2022-12-03T12:59:09.363Z,67.65
2022-12-03T13:01:36.863Z,67.83
2022-12-03T13:04:14.140Z,68.31
2022-12-03T13:06:42.883Z,68.53
2022-12-03T13:09:17.754Z,68.80
2022-12-03T13:11:47.275Z,68.70
2022-12-03T13:14:26.340Z,68.81
2022-12-03T13:16:56.688Z,69.52
2022-12-03T13:19:26.779Z,70.16
2022-12-03T13:21:56.361Z,70.18
2022-12-03T13:24:32.694Z,70.63
2022-12-03T13:27:08.803Z,71.45
2022-12-03T13:29:36.341Z,71.74
2022-12-03T13:32:13.391Z,71.72
2022-12-03T13:34:41.441Z,71.94
2022-12-03T13:37:19.818Z,72.26
2022-12-03T13:39:52.805Z,72.61
2022-12-03T13:42:39.415Z,73.11
2022-12-03T13:45:15.863Z,72.90
2022-12-03T13:47:53.348Z,72.93
2022-12-03T13:50:38.620Z,73.55
2022-12-03T13:53:20.852Z,73.40
2022-12-03T13:56:08.660Z,73.35
2022-12-03T13:58:37.608Z,73.85
2022-12-03T14:01:06.400Z,73.87
2022-12-03T14:03:33.841Z,73.74
2022-12-03T14:06:01.220Z,73.76
2022-12-03T14:08:28.682Z,74.23
2022-12-03T14:11:00.337Z,74.15
2022-12-03T14:13:28.392Z,74.25
2022-12-03T14:15:56.108Z,74.40
2022-12-03T14:18:24.296Z,73.98
2022-12-03T14:20:55.101Z,73.90
2022-12-03T14:23:23.069Z,73.70
2022-12-03T14:25:50.409Z,73.48
2022-12-03T14:28:19.084Z,73.33
2022-12-03T14:30:46.564Z,73.60
2022-12-03T14:33:14.437Z,73.90
2022-12-03T14:35:41.755Z,74.35
2022-12-03T14:38:10.219Z,74.65
2022-12-03T14:40:37.526Z,75.10
2022-12-03T14:43:04.864Z,75.79
2022-12-03T14:45:32.401Z,76.11
2022-12-03T14:47:59.799Z,76.45
2022-12-03T14:50:27.376Z,77.07
2022-12-03T14:52:56.109Z,78.04
2022-12-03T14:55:23.577Z,78.90
2022-12-03T14:57:50.978Z,79.23
2022-12-03T15:00:22.589Z,79.78
2022-12-03T15:02:50.074Z,80.28
2022-12-03T15:05:19.281Z,80.43
2022-12-03T15:07:50.534Z,81.86
2022-12-03T15:10:18.512Z,82.24
2022-12-03T15:12:46.290Z,83.12
2022-12-03T15:15:14.257Z,83.25
2022-12-03T15:17:45.705Z,83.56
2022-12-03T15:20:13.530Z,83.61
2022-12-03T15:22:41.087Z,83.68
2022-12-03T15:25:09.768Z,83.98
2022-12-03T15:27:37.274Z,84.57
2022-12-03T15:30:06.213Z,85.21
2022-12-03T15:32:34.186Z,85.56
2022-12-03T15:35:01.576Z,85.52
2022-12-03T15:37:28.878Z,85.85
2022-12-03T15:39:58.590Z,86.02
2022-12-03T15:42:28.036Z,86.20
2022-12-03T15:44:55.423Z,86.11
2022-12-03T15:47:22.734Z,86.96
2022-12-03T15:49:50.248Z,87.03
2022-12-03T15:52:18.615Z,87.09
2022-12-03T15:54:45.968Z,87.08
2022-12-03T15:57:13.427Z,86.90
2022-12-03T15:59:40.773Z,86.52
2022-12-03T16:02:08.166Z,86.43
2022-12-03T16:04:36.185Z,86.92
2022-12-03T16:07:03.883Z,87.43
2022-12-03T16:09:31.353Z,87.33
2022-12-03T16:11:58.661Z,87.22
2022-12-03T16:14:26.523Z,87.34
2022-12-03T16:17:00.014Z,87.42
2022-12-03T16:19:27.402Z,87.61
2022-12-03T16:21:54.698Z,87.58
2022-12-03T16:24:22.084Z,87.60
2022-12-03T16:26:49.370Z,87.77
2022-12-03T16:29:16.702Z,87.53
2022-12-03T16:31:44.311Z,87.35
2022-12-03T16:34:12.519Z,87.58
2022-12-03T16:36:43.234Z,87.51
2022-12-03T16:39:12.757Z,87.56
2022-12-03T16:41:40.310Z,87.59
2022-12-03T16:44:07.961Z,87.81
2022-12-03T16:46:35.424Z,88.07
2022-12-03T16:49:03.742Z,87.92
2022-12-03T16:51:31.158Z,87.68
2022-12-03T16:53:58.430Z,87.82
2022-12-03T16:56:25.698Z,88.25
2022-12-03T16:58:53.065Z,88.06
2022-12-03T17:01:23.361Z,88.00
2022-12-03T17:03:50.873Z,88.07
2022-12-03T17:06:18.159Z,87.75
2022-12-03T17:08:49.410Z,87.97
2022-12-03T17:11:17.864Z,88.13
2022-12-03T17:13:46.193Z,87.69
2022-12-03T17:16:13.966Z,87.59
2022-12-03T17:18:41.607Z,87.82
2022-12-03T17:21:08.977Z,88.20
2022-12-03T17:23:36.309Z,88.30
2022-12-03T17:26:03.769Z,88.24
2022-12-03T17:28:31.048Z,88.13
2022-12-03T17:30:58.468Z,88.43
2022-12-03T17:33:28.218Z,88.35
2022-12-03T17:35:55.840Z,88.25
2022-12-03T17:38:23.092Z,88.53
2022-12-03T17:40:50.463Z,88.61
2022-12-03T17:43:17.815Z,88.44
2022-12-03T17:45:45.494Z,88.43
2022-12-03T17:48:12.833Z,88.71
2022-12-03T17:50:40.132Z,89.29
2022-12-03T17:53:10.334Z,89.18
2022-12-03T17:55:44.344Z,88.81
2022-12-03T17:58:13.349Z,88.57
2022-12-03T18:00:40.732Z,88.98
2022-12-03T18:03:08.055Z,88.69
2022-12-03T18:05:35.704Z,88.87
2022-12-03T18:08:03.450Z,89.15
2022-12-03T18:10:30.919Z,89.97
2022-12-03T18:13:01.646Z,89.82
2022-12-03T18:15:30.808Z,89.55
2022-12-03T18:17:58.446Z,89.13
2022-12-03T18:20:25.828Z,89.62
2022-12-03T18:22:53.392Z,89.44
2022-12-03T18:25:20.757Z,89.29
2022-12-03T18:27:48.071Z,89.21
2022-12-03T18:30:15.650Z,89.23
2022-12-03T18:32:42.996Z,89.19
2022-12-03T18:35:10.319Z,88.87
2022-12-03T18:37:37.677Z,88.73
2022-12-03T18:40:12.899Z,88.48
2022-12-03T18:42:40.730Z,88.12
2022-12-03T18:45:11.750Z,88.57
2022-12-03T18:47:39.206Z,89.15
2022-12-03T18:50:07.920Z,89.55
2022-12-03T18:52:35.341Z,89.55
2022-12-03T18:55:05.140Z,89.16
2022-12-03T18:57:32.516Z,89.70
2022-12-03T19:00:00.239Z,90.08
2022-12-03T19:05:29.683Z,90.21
2022-12-03T19:07:57.523Z,89.99
2022-12-03T19:10:27.690Z,89.80
2022-12-03T19:12:55.130Z,89.51
2022-12-03T19:15:22.934Z,89.29
2022-12-03T19:17:51.274Z,89.17
2022-12-03T19:20:18.637Z,89.44
2022-12-03T19:22:46.257Z,89.48
2022-12-03T19:25:13.755Z,89.26
2022-12-03T19:27:44.339Z,90.39
2022-12-03T19:30:13.975Z,90.55
2022-12-03T19:32:42.293Z,90.40
2022-12-03T19:35:11.466Z,90.17
2022-12-03T19:37:39.291Z,89.91
2022-12-03T19:40:07.463Z,89.69
2022-12-03T19:42:34.754Z,89.45
2022-12-03T19:45:02.040Z,89.27
2022-12-03T19:47:29.368Z,89.08
2022-12-03T19:49:57.036Z,88.94
2022-12-03T19:52:24.812Z,88.87
2022-12-03T19:54:52.480Z,88.75
2022-12-03T19:57:23.215Z,88.65
2022-12-03T19:59:51.096Z,88.61
2022-12-03T20:02:18.476Z,88.79
2022-12-03T20:04:45.944Z,88.71
2022-12-03T20:07:16.941Z,88.45
2022-12-03T20:09:51.838Z,88.16
2022-12-03T20:12:20.223Z,87.94
2022-12-03T20:14:49.900Z,87.86
2022-12-03T20:17:17.474Z,87.69
2022-12-03T20:19:44.956Z,87.56
2022-12-03T20:22:14.456Z,87.47
2022-12-03T20:24:43.993Z,87.34
2022-12-03T20:27:12.341Z,87.28
2022-12-03T20:29:39.798Z,87.27
2022-12-03T20:32:07.288Z,87.13
2022-12-03T20:34:36.027Z,87.03
2022-12-03T20:37:03.587Z,87.01
2022-12-03T20:39:31.004Z,87.01
2022-12-03T20:41:58.378Z,86.95
2022-12-03T20:44:25.703Z,86.95
2022-12-03T20:46:53.124Z,86.81
2022-12-03T20:49:20.462Z,86.62
2022-12-03T20:51:50.376Z,86.57
2022-12-03T20:54:17.845Z,86.62
2022-12-03T20:56:45.154Z,86.80
2022-12-03T20:59:14.485Z,86.75
2022-12-03T21:01:42.988Z,87.06
2022-12-03T21:04:13.498Z,87.36
2022-12-03T21:06:42.352Z,87.60
2022-12-03T21:09:11.107Z,87.55
2022-12-03T21:11:42.491Z,87.55
2022-12-03T21:14:11.424Z,88.09
2022-12-03T21:17:07.364Z,88.12
2022-12-03T21:19:32.100Z,88.33
2022-12-03T21:22:00.404Z,88.30
2022-12-03T21:24:30.036Z,88.35
2022-12-03T21:26:57.467Z,88.28
2022-12-03T21:29:25.132Z,88.64
2022-12-03T21:31:52.434Z,88.90
2022-12-03T21:34:19.876Z,89.31
2022-12-03T21:36:47.282Z,89.98
2022-12-03T21:39:14.581Z,90.12
2022-12-03T21:41:41.857Z,90.11
2022-12-03T21:44:29.173Z,90.01
2022-12-03T21:47:12.342Z,89.83
2022-12-03T21:49:41.576Z,89.70
2022-12-03T21:52:09.431Z,89.62
2022-12-03T21:54:36.875Z,89.65
2022-12-03T21:57:04.182Z,89.57
2022-12-03T21:59:31.550Z,89.53
2022-12-03T22:01:58.953Z,89.67
2022-12-03T22:04:28.069Z,89.76
2022-12-03T22:06:55.606Z,89.95
2022-12-03T22:09:26.489Z,89.85
2022-12-03T22:11:57.098Z,89.78
2022-12-03T22:14:24.842Z,89.84
2022-12-03T22:16:52.101Z,90.01
2022-12-03T22:19:22.924Z,89.99
2022-12-03T22:21:50.497Z,90.00
2022-12-03T22:24:19.266Z,89.89
2022-12-03T22:26:47.492Z,89.90
2022-12-03T22:29:15.019Z,90.06
2022-12-03T22:31:42.276Z,89.91
2022-12-03T22:34:09.563Z,89.98
2022-12-03T22:36:37.264Z,89.73
2022-12-03T22:39:04.959Z,89.57
2022-12-03T22:41:32.325Z,89.46
2022-12-03T22:43:59.686Z,89.45
2022-12-03T22:46:27.063Z,89.41
2022-12-03T22:48:54.380Z,89.44
2022-12-03T22:51:24.245Z,89.58
2022-12-03T22:53:59.018Z,89.55
2022-12-03T22:56:29.625Z,89.37
2022-12-03T22:58:57.469Z,89.44
2022-12-03T23:01:33.593Z,89.53
2022-12-03T23:04:01.988Z,89.58
2022-12-03T23:06:30.527Z,89.52
2022-12-03T23:08:59.056Z,89.83
2022-12-03T23:11:26.907Z,89.90
2022-12-03T23:13:54.418Z,90.08
2022-12-03T23:16:28.270Z,90.23
2022-12-03T23:18:57.668Z,90.32
2022-12-03T23:21:29.946Z,90.32
2022-12-03T23:24:03.341Z,90.38
2022-12-03T23:26:35.520Z,90.37
2022-12-03T23:29:03.917Z,90.32
2022-12-03T23:31:32.890Z,90.31
2022-12-03T23:34:01.209Z,90.30
2022-12-03T23:36:31.710Z,90.15
2022-12-03T23:38:58.994Z,90.42
2022-12-03T23:41:26.841Z,90.38
2022-12-03T23:43:54.607Z,90.20
2022-12-03T23:46:24.606Z,90.11
2022-12-03T23:48:52.079Z,90.19
2022-12-03T23:51:23.346Z,90.14
2022-12-03T23:53:52.878Z,90.05
2022-12-03T23:56:23.323Z,89.93
2022-12-03T23:58:50.727Z,89.88
